createdAt,value
2023-02-14T00:01:23.971Z,21.37
2023-02-14T00:03:51.473Z,21.77
2023-02-14T00:06:20.420Z,22.40
2023-02-14T00:08:47.832Z,22.40
2023-02-14T00:11:15.310Z,19.47
2023-02-14T00:14:03.929Z,21.00
2023-02-14T00:16:30.670Z,23.03
2023-02-14T00:19:04.555Z,20.83
2023-02-14T00:21:36.483Z,22.00
2023-02-14T00:24:04.416Z,20.77
2023-02-14T00:26:32.010Z,21.60
2023-02-14T00:28:59.468Z,19.90
2023-02-14T00:31:26.975Z,20.77
2023-02-14T00:33:55.283Z,23.00
2023-02-14T00:36:22.730Z,21.67
2023-02-14T00:38:51.532Z,22.70
2023-02-14T00:41:20.142Z,21.73
2023-02-14T00:43:48.052Z,23.30
2023-02-14T00:46:16.439Z,20.73
2023-02-14T00:48:44.254Z,22.00
2023-02-14T00:51:11.889Z,22.47
2023-02-14T00:53:39.364Z,21.40
2023-02-14T00:56:09.208Z,20.17
2023-02-14T00:58:36.781Z,22.00
2023-02-14T01:01:04.732Z,21.53
2023-02-14T01:03:32.395Z,22.63
2023-02-14T01:05:59.998Z,22.13
2023-02-14T01:08:27.516Z,21.13
2023-02-14T01:10:55.086Z,22.27
2023-02-14T01:13:24.553Z,22.30
2023-02-14T01:15:52.968Z,23.13
2023-02-14T01:18:20.621Z,21.17
2023-02-14T01:20:48.245Z,21.67
2023-02-14T01:23:15.648Z,22.37
2023-02-14T01:25:43.098Z,22.33
2023-02-14T01:28:10.530Z,21.90
2023-02-14T01:30:39.333Z,21.53
2023-02-14T01:33:06.784Z,22.37
2023-02-14T01:35:38.493Z,21.87
2023-02-14T01:38:06.148Z,21.97
2023-02-14T01:40:33.606Z,20.67
2023-02-14T01:43:01.271Z,19.90
2023-02-14T01:45:29.850Z,21.90
2023-02-14T01:47:59.461Z,21.57
2023-02-14T01:50:31.038Z,22.20
2023-02-14T01:53:03.282Z,23.10
2023-02-14T01:55:33.344Z,23.17
2023-02-14T01:58:05.735Z,21.73
2023-02-14T02:00:51.290Z,21.97
2023-02-14T02:03:21.098Z,22.10
2023-02-14T02:05:50.785Z,20.73
2023-02-14T02:08:18.404Z,21.57
2023-02-14T02:10:45.825Z,20.67
2023-02-14T02:13:17.853Z,21.40
2023-02-14T02:15:55.496Z,21.23
2023-02-14T02:18:32.999Z,21.93
2023-02-14T02:21:41.124Z,21.17
2023-02-14T02:24:20.210Z,23.90
2023-02-14T02:27:17.421Z,22.73
2023-02-14T02:30:21.410Z,22.27
2023-02-14T02:33:49.543Z,23.17
2023-02-14T02:36:36.853Z,22.43
2023-02-14T02:39:15.650Z,21.30
2023-02-14T02:41:53.354Z,24.60
2023-02-14T02:44:29.130Z,23.50
2023-02-14T02:47:05.520Z,22.20
2023-02-14T02:49:59.875Z,22.87
2023-02-14T02:52:56.026Z,23.13
2023-02-14T02:55:51.473Z,23.13
2023-02-14T02:58:19.725Z,23.00
2023-02-14T03:00:49.698Z,22.83
2023-02-14T03:03:37.833Z,23.73
2023-02-14T03:06:05.676Z,24.47
2023-02-14T03:08:34.407Z,23.67
2023-02-14T03:11:04.114Z,22.30
2023-02-14T03:14:01.037Z,23.17
2023-02-14T03:16:34.317Z,21.93
2023-02-14T03:19:39.689Z,22.23
2023-02-14T03:22:13.918Z,23.17
2023-02-14T03:24:49.235Z,20.40
2023-02-14T03:27:22.761Z,23.17
2023-02-14T03:29:58.925Z,23.07
2023-02-14T03:32:35.490Z,22.80
2023-02-14T03:35:16.519Z,23.93
2023-02-14T03:37:50.203Z,21.60
2023-02-14T03:40:24.248Z,21.63
2023-02-14T03:42:55.803Z,23.77
2023-02-14T03:45:28.782Z,24.47
2023-02-14T03:47:59.984Z,23.90
2023-02-14T03:50:31.433Z,24.63
2023-02-14T03:53:01.182Z,25.17
2023-02-14T03:55:37.175Z,24.47
2023-02-14T03:58:11.529Z,26.13
2023-02-14T04:00:42.655Z,25.40
2023-02-14T04:03:12.798Z,23.80
2023-02-14T04:05:43.864Z,24.30
2023-02-14T04:08:12.479Z,24.17
2023-02-14T04:10:43.179Z,24.67
2023-02-14T04:13:10.856Z,26.30
2023-02-14T04:15:38.300Z,24.80
2023-02-14T04:18:23.412Z,24.77
2023-02-14T04:20:50.838Z,25.30
2023-02-14T04:23:18.269Z,24.20
2023-02-14T04:25:47.071Z,24.30
2023-02-14T04:28:15.323Z,23.83
2023-02-14T04:30:42.874Z,23.60
2023-02-14T04:33:10.755Z,24.47
2023-02-14T04:35:38.221Z,24.23
2023-02-14T04:38:05.961Z,23.97
2023-02-14T04:40:33.431Z,23.30
2023-02-14T04:43:02.385Z,25.47
2023-02-14T04:45:29.900Z,25.40
2023-02-14T04:47:57.314Z,23.90
2023-02-14T04:50:25.930Z,25.90
2023-02-14T04:52:53.417Z,24.20
2023-02-14T04:55:20.885Z,25.67
2023-02-14T04:57:48.410Z,24.53
2023-02-14T05:00:18.244Z,22.53
2023-02-14T05:02:45.744Z,25.33
2023-02-14T05:05:13.167Z,25.67
2023-02-14T05:07:42.151Z,24.60
2023-02-14T05:10:10.686Z,25.77
2023-02-14T05:12:38.248Z,26.60
2023-02-14T05:15:06.088Z,24.97
2023-02-14T05:17:34.853Z,27.30
2023-02-14T05:20:02.314Z,25.33
2023-02-14T05:22:29.784Z,26.27
2023-02-14T05:24:57.229Z,24.17
2023-02-14T05:27:24.639Z,25.07
2023-02-14T05:29:52.507Z,26.07
2023-02-14T05:32:20.011Z,26.30
2023-02-14T05:34:48.770Z,26.33
2023-02-14T05:37:16.175Z,26.47
2023-02-14T05:39:43.592Z,25.53
2023-02-14T05:42:11.167Z,25.70
2023-02-14T05:44:38.674Z,23.80
2023-02-14T05:47:06.159Z,23.97
2023-02-14T05:49:33.586Z,24.90
2023-02-14T05:52:02.357Z,23.90
2023-02-14T05:54:29.790Z,25.93
2023-02-14T05:56:57.199Z,24.10
2023-02-14T05:59:24.603Z,23.07
2023-02-14T06:01:52.054Z,22.33
2023-02-14T06:04:19.495Z,24.17
2023-02-14T06:06:46.988Z,25.50
2023-02-14T06:09:15.894Z,21.80
2023-02-14T06:11:43.411Z,24.03
2023-02-14T06:14:10.825Z,26.63
2023-02-14T06:16:38.344Z,25.27
2023-02-14T06:19:05.932Z,23.27
2023-02-14T06:21:33.386Z,26.00
2023-02-14T06:24:00.784Z,22.27
2023-02-14T06:26:30.571Z,25.63
2023-02-14T06:28:59.965Z,22.80
2023-02-14T06:31:27.515Z,25.10
2023-02-14T06:33:55.774Z,24.53
2023-02-14T06:36:24.687Z,24.90
2023-02-14T06:38:52.283Z,23.07
2023-02-14T06:41:19.761Z,22.23
2023-02-14T06:43:49.529Z,23.70
2023-02-14T06:46:18.056Z,25.40
2023-02-14T06:48:46.064Z,25.77
2023-02-14T06:51:13.539Z,23.67
2023-02-14T06:53:41.108Z,21.60
2023-02-14T06:56:08.844Z,22.83
2023-02-14T06:58:36.434Z,23.23
2023-02-14T07:01:05.559Z,23.63
2023-02-14T07:03:33.002Z,22.40
2023-02-14T07:06:00.645Z,23.93
2023-02-14T07:08:28.075Z,25.53
2023-02-14T07:10:56.878Z,22.40
2023-02-14T07:13:24.668Z,21.93
2023-02-14T07:15:52.256Z,32.23
2023-02-14T07:18:21.101Z,24.30
2023-02-14T07:20:48.660Z,30.03
2023-02-14T07:23:16.109Z,24.37
2023-02-14T07:25:43.515Z,24.10
2023-02-14T07:28:11.085Z,25.23
2023-02-14T07:30:38.565Z,24.03
2023-02-14T07:33:06.343Z,24.20
2023-02-14T07:35:36.182Z,23.20
2023-02-14T07:38:04.960Z,25.03
2023-02-14T07:40:32.448Z,22.83
2023-02-14T07:43:01.085Z,23.33
2023-02-14T07:45:28.681Z,23.10
2023-02-14T07:47:56.326Z,22.97
2023-02-14T07:50:24.355Z,22.03
2023-02-14T07:52:53.092Z,21.70
2023-02-14T07:55:20.595Z,22.20
2023-02-14T07:57:48.895Z,20.93
2023-02-14T08:00:16.882Z,20.30
2023-02-14T08:02:44.826Z,20.80
2023-02-14T08:05:12.307Z,20.27
2023-02-14T08:07:39.835Z,22.07
2023-02-14T08:10:10.923Z,21.97
2023-02-14T08:12:56.837Z,22.50
2023-02-14T08:15:41.762Z,22.20
2023-02-14T08:18:09.249Z,22.50
2023-02-14T08:20:36.652Z,21.63
2023-02-14T08:23:04.514Z,29.67
2023-02-14T08:25:33.263Z,23.00
2023-02-14T08:28:06.743Z,48.43
2023-02-14T08:30:36.621Z,25.97
2023-02-14T08:33:04.109Z,24.03
2023-02-14T08:35:31.747Z,24.97
2023-02-14T08:37:59.588Z,23.60
2023-02-14T08:40:29.779Z,21.87
2023-02-14T08:42:58.593Z,21.10
2023-02-14T08:45:26.436Z,20.27
2023-02-14T08:47:54.199Z,20.33
2023-02-14T08:50:22.098Z,22.23
2023-02-14T08:52:49.643Z,21.77
2023-02-14T08:55:17.388Z,21.50
2023-02-14T08:57:44.780Z,23.73
2023-02-14T09:00:15.343Z,23.50
2023-02-14T09:02:43.095Z,22.70
2023-02-14T09:05:10.845Z,27.37
2023-02-14T09:07:38.541Z,25.20
2023-02-14T09:10:07.509Z,24.23
2023-02-14T09:12:35.034Z,22.20
2023-02-14T09:15:02.528Z,22.43
2023-02-14T09:17:31.357Z,25.93
2023-02-14T09:19:58.802Z,22.90
2023-02-14T09:22:26.241Z,24.60
2023-02-14T09:24:53.771Z,23.43
2023-02-14T09:27:21.288Z,25.03
2023-02-14T09:29:48.711Z,24.73
2023-02-14T09:32:16.787Z,25.20
2023-02-14T09:34:45.782Z,25.67
2023-02-14T09:37:31.989Z,25.43
2023-02-14T09:39:59.542Z,20.63
2023-02-14T09:42:47.232Z,25.47
2023-02-14T09:45:17.727Z,23.93
2023-02-14T09:47:50.230Z,26.70
2023-02-14T09:50:26.538Z,22.23
2023-02-14T09:52:57.833Z,26.90
2023-02-14T09:55:30.161Z,26.93
2023-02-14T09:58:09.249Z,25.93
2023-02-14T10:00:42.392Z,26.53
2023-02-14T10:03:38.051Z,25.30
2023-02-14T10:06:20.228Z,25.40
2023-02-14T10:08:58.486Z,26.13
2023-02-14T10:11:26.010Z,24.47
2023-02-14T10:13:58.854Z,29.00
2023-02-14T10:16:32.467Z,25.07
2023-02-14T10:19:04.182Z,28.03
2023-02-14T10:21:38.759Z,25.67
2023-02-14T10:24:15.207Z,25.90
2023-02-14T10:26:44.480Z,21.67
2023-02-14T10:29:15.980Z,25.27
2023-02-14T10:31:55.615Z,25.13
2023-02-14T10:34:30.135Z,22.97
2023-02-14T10:37:15.064Z,26.20
2023-02-14T10:39:58.041Z,26.37
2023-02-14T10:42:36.049Z,25.93
2023-02-14T10:45:16.044Z,28.60
2023-02-14T10:47:52.799Z,26.20
2023-02-14T10:50:26.685Z,24.80
2023-02-14T10:53:04.907Z,22.37
2023-02-14T10:55:44.046Z,21.13
2023-02-14T10:58:15.748Z,22.90
2023-02-14T11:00:53.763Z,22.77
2023-02-14T11:03:21.440Z,24.40
2023-02-14T11:05:50.286Z,24.97
2023-02-14T11:08:25.853Z,24.00
2023-02-14T11:10:54.805Z,25.00
2023-02-14T11:13:32.096Z,22.03
2023-02-14T11:16:02.194Z,23.43
2023-02-14T11:18:32.922Z,21.90
2023-02-14T11:21:02.857Z,23.80
2023-02-14T11:23:35.573Z,23.77
2023-02-14T11:26:05.041Z,19.80
2023-02-14T11:28:32.821Z,23.23
2023-02-14T11:31:01.008Z,21.83
2023-02-14T11:33:35.592Z,23.90
2023-02-14T11:36:06.069Z,23.70
2023-02-14T11:38:38.410Z,24.80
2023-02-14T11:41:08.796Z,23.93
2023-02-14T11:43:38.187Z,23.13
2023-02-14T11:46:09.548Z,24.27
2023-02-14T11:48:39.118Z,25.13
2023-02-14T11:51:09.105Z,23.33
2023-02-14T11:53:45.692Z,25.77
2023-02-14T11:56:14.007Z,24.67
2023-02-14T11:58:46.224Z,26.80
2023-02-14T12:01:22.681Z,24.17
2023-02-14T12:03:51.423Z,23.33
2023-02-14T12:06:25.379Z,23.90
2023-02-14T12:09:12.111Z,23.90
2023-02-14T12:11:39.877Z,23.53
2023-02-14T12:14:21.465Z,24.23
2023-02-14T12:16:57.335Z,23.80
2023-02-14T12:19:35.496Z,24.27
2023-02-14T12:22:06.388Z,20.90
2023-02-14T12:24:39.053Z,20.37
2023-02-14T12:27:20.030Z,20.57
2023-02-14T12:29:53.664Z,21.17
2023-02-14T12:32:24.277Z,21.07
2023-02-14T12:34:52.701Z,23.53
2023-02-14T12:37:32.462Z,22.53
2023-02-14T12:40:24.266Z,22.40
2023-02-14T12:43:13.205Z,21.33
2023-02-14T12:46:05.532Z,20.77
2023-02-14T12:48:44.048Z,22.93
2023-02-14T12:51:20.455Z,22.10
2023-02-14T12:54:21.296Z,23.20
2023-02-14T12:57:01.553Z,22.77
2023-02-14T12:59:40.597Z,22.87
2023-02-14T13:02:44.117Z,22.63
2023-02-14T13:05:20.996Z,22.40
2023-02-14T13:08:03.200Z,23.07
2023-02-14T13:10:46.349Z,22.43
2023-02-14T13:13:24.045Z,21.47
2023-02-14T13:16:00.313Z,21.30
2023-02-14T13:18:42.525Z,23.60
2023-02-14T13:21:14.975Z,22.97
2023-02-14T13:23:44.731Z,22.23
2023-02-14T13:26:15.649Z,23.93
2023-02-14T13:28:50.376Z,22.10
2023-02-14T13:31:19.194Z,22.87
2023-02-14T13:33:52.065Z,22.20
2023-02-14T13:36:20.722Z,23.37
2023-02-14T13:38:52.735Z,22.67
2023-02-14T13:41:22.402Z,23.10
2023-02-14T13:44:01.673Z,23.13
2023-02-14T13:46:56.561Z,22.17
2023-02-14T13:49:31.600Z,22.70
2023-02-14T13:52:02.751Z,22.40
2023-02-14T13:54:44.612Z,21.93
2023-02-14T13:57:34.217Z,22.03
2023-02-14T14:00:47.021Z,22.90
2023-02-14T14:03:37.076Z,21.30
2023-02-14T14:06:08.616Z,22.47
2023-02-14T14:08:38.021Z,19.53
2023-02-14T14:11:11.338Z,22.93
2023-02-14T14:13:59.847Z,23.97
2023-02-14T14:16:30.579Z,20.30
2023-02-14T14:18:59.629Z,24.33
2023-02-14T14:21:30.596Z,22.40
2023-02-14T14:24:13.520Z,22.57
2023-02-14T14:26:43.846Z,25.93
2023-02-14T14:29:17.010Z,22.70
2023-02-14T14:31:44.620Z,22.13
2023-02-14T14:34:18.794Z,20.40
2023-02-14T14:36:47.730Z,20.33
2023-02-14T14:39:27.572Z,22.30
2023-02-14T14:41:55.330Z,23.17
2023-02-14T14:44:22.782Z,22.37
2023-02-14T14:46:50.361Z,21.33
2023-02-14T14:49:18.151Z,22.87
2023-02-14T14:51:47.080Z,20.17
2023-02-14T14:54:17.385Z,18.50
2023-02-14T14:56:49.912Z,21.30
2023-02-14T14:59:20.282Z,19.70
2023-02-14T15:01:47.973Z,20.53
2023-02-14T15:04:19.010Z,20.13
2023-02-14T15:06:49.752Z,21.03
2023-02-14T15:09:23.613Z,22.97
2023-02-14T15:12:11.567Z,20.73
2023-02-14T15:14:43.029Z,23.60
2023-02-14T15:17:18.684Z,22.10
2023-02-14T15:19:50.907Z,22.00
2023-02-14T15:22:22.645Z,18.90
2023-02-14T15:24:51.936Z,20.87
2023-02-14T15:27:23.395Z,21.27
2023-02-14T15:29:56.024Z,20.87
2023-02-14T15:32:24.540Z,20.10
2023-02-14T15:34:52.549Z,23.70
2023-02-14T15:37:22.111Z,19.30
2023-02-14T15:39:53.201Z,22.43
2023-02-14T15:42:25.698Z,21.50
2023-02-14T15:45:17.994Z,22.20
2023-02-14T15:47:48.113Z,19.23
2023-02-14T15:50:17.764Z,26.63
2023-02-14T15:52:48.736Z,22.43
2023-02-14T15:55:19.831Z,20.87
2023-02-14T15:57:56.265Z,21.03
2023-02-14T16:00:25.519Z,19.77
2023-02-14T16:02:57.344Z,19.77
2023-02-14T16:05:27.405Z,20.57
2023-02-14T16:08:03.563Z,18.63
2023-02-14T16:10:33.727Z,18.17
2023-02-14T16:13:04.270Z,19.53
2023-02-14T16:15:33.648Z,19.40
2023-02-14T16:18:06.362Z,18.77
2023-02-14T16:20:43.251Z,19.40
2023-02-14T16:23:20.895Z,19.93
2023-02-14T16:25:49.128Z,19.83
2023-02-14T16:28:17.206Z,18.23
2023-02-14T16:30:47.330Z,19.60
2023-02-14T16:33:19.475Z,21.37
2023-02-14T16:35:47.598Z,18.00
2023-02-14T16:38:16.403Z,19.77
2023-02-14T16:40:47.388Z,19.53
2023-02-14T16:43:17.045Z,20.93
2023-02-14T16:45:45.833Z,20.33
2023-02-14T16:48:15.853Z,15.77
2023-02-14T16:50:44.223Z,17.17
2023-02-14T16:53:18.176Z,19.27
2023-02-14T16:55:46.906Z,17.23
2023-02-14T16:58:15.165Z,19.10
2023-02-14T17:00:42.619Z,18.77
2023-02-14T17:03:11.536Z,16.83
2023-02-14T17:05:40.370Z,18.07
2023-02-14T17:08:11.113Z,17.03
2023-02-14T17:10:38.916Z,19.00
2023-02-14T17:13:08.922Z,19.07
2023-02-14T17:15:36.740Z,18.53
2023-02-14T17:18:08.924Z,20.60
2023-02-14T17:20:37.274Z,20.50
2023-02-14T17:23:04.816Z,19.00
2023-02-14T17:25:32.285Z,18.93
2023-02-14T17:28:01.039Z,16.77
2023-02-14T17:30:29.934Z,19.67
2023-02-14T17:32:57.828Z,19.93
2023-02-14T17:35:26.015Z,22.43
2023-02-14T17:37:53.461Z,21.77
2023-02-14T17:40:21.222Z,21.80
2023-02-14T17:42:48.673Z,21.63
2023-02-14T17:45:16.212Z,22.17
2023-02-14T17:47:45.673Z,22.17
2023-02-14T17:50:14.657Z,21.43
2023-02-14T17:52:42.330Z,20.20
2023-02-14T17:55:10.264Z,21.67
2023-02-14T17:57:39.134Z,22.87
2023-02-14T18:00:10.067Z,22.93
2023-02-14T18:02:38.790Z,22.40
2023-02-14T18:05:08.574Z,21.20
2023-02-14T18:07:36.896Z,22.27
2023-02-14T18:10:04.579Z,21.83
2023-02-14T18:12:32.359Z,22.37
2023-02-14T18:14:59.951Z,24.33
2023-02-14T18:17:27.434Z,21.13
2023-02-14T18:19:55.033Z,21.27
2023-02-14T18:22:23.863Z,20.93
2023-02-14T18:24:51.430Z,20.93
2023-02-14T18:27:18.857Z,22.70
2023-02-14T18:29:46.395Z,22.87
2023-02-14T18:32:13.916Z,22.83
2023-02-14T18:34:41.415Z,24.30
2023-02-14T18:37:08.907Z,24.47
2023-02-14T18:39:38.563Z,25.80
2023-02-14T18:42:06.235Z,24.00
2023-02-14T18:44:34.247Z,23.17
2023-02-14T18:47:02.649Z,23.37
2023-02-14T18:49:30.410Z,24.07
2023-02-14T18:51:58.749Z,22.97
2023-02-14T18:54:28.423Z,22.80
2023-02-14T18:56:57.208Z,24.57
2023-02-14T18:59:24.654Z,23.00
2023-02-14T19:01:52.177Z,26.10
2023-02-14T19:04:19.661Z,23.13
2023-02-14T19:06:47.064Z,24.67
2023-02-14T19:09:17.237Z,24.40
2023-02-14T19:11:45.257Z,25.97
2023-02-14T19:14:14.053Z,25.53
2023-02-14T19:16:50.034Z,26.60
2023-02-14T19:19:18.502Z,25.77
2023-02-14T19:21:46.465Z,28.13
2023-02-14T19:24:16.378Z,26.57
2023-02-14T19:26:44.199Z,30.33
2023-02-14T19:29:14.916Z,26.50
2023-02-14T19:31:45.697Z,27.33
2023-02-14T19:34:17.404Z,26.87
2023-02-14T19:36:45.284Z,25.53
2023-02-14T19:39:13.654Z,24.80
2023-02-14T19:41:41.590Z,25.07
2023-02-14T19:44:13.680Z,26.47
2023-02-14T19:46:44.085Z,27.03
2023-02-14T19:49:14.973Z,28.73
2023-02-14T19:51:43.238Z,27.37
2023-02-14T19:54:11.184Z,25.73
2023-02-14T19:56:40.528Z,26.70
2023-02-14T19:59:09.474Z,24.90
2023-02-14T20:01:39.661Z,28.83
2023-02-14T20:04:10.847Z,25.70
2023-02-14T20:06:38.791Z,26.53
2023-02-14T20:09:07.052Z,27.97
2023-02-14T20:11:36.454Z,28.63
2023-02-14T20:14:04.824Z,29.07
2023-02-14T20:16:34.391Z,29.30
2023-02-14T20:19:02.923Z,27.67
2023-02-14T20:21:31.727Z,26.57
2023-02-14T20:24:00.865Z,26.77
2023-02-14T20:26:28.999Z,26.83
2023-02-14T20:28:56.672Z,28.67
2023-02-14T20:31:24.205Z,26.67
2023-02-14T20:33:52.796Z,28.50
2023-02-14T20:36:20.707Z,27.33
2023-02-14T20:38:49.491Z,28.43
2023-02-14T20:41:17.374Z,26.90
2023-02-14T20:43:44.799Z,26.67
2023-02-14T20:46:12.250Z,28.87
2023-02-14T20:48:39.828Z,29.43
2023-02-14T20:51:12.169Z,27.93
2023-02-14T20:53:40.570Z,27.20
2023-02-14T20:56:09.709Z,26.93
2023-02-14T20:58:38.311Z,25.07
2023-02-14T21:01:07.416Z,25.73
2023-02-14T21:03:37.210Z,27.10
2023-02-14T21:06:05.687Z,24.03
2023-02-14T21:08:33.627Z,25.03
2023-02-14T21:11:01.374Z,26.53
2023-02-14T21:13:30.493Z,26.53
2023-02-14T21:16:02.595Z,26.90
2023-02-14T21:18:30.680Z,26.93
2023-02-14T21:21:04.631Z,25.77
2023-02-14T21:23:32.165Z,24.70
2023-02-14T21:25:59.734Z,27.33
2023-02-14T21:28:27.200Z,30.63
2023-02-14T21:31:04.844Z,25.57
2023-02-14T21:33:33.375Z,27.97
2023-02-14T21:36:06.658Z,24.30
2023-02-14T21:38:34.270Z,24.80
2023-02-14T21:41:04.970Z,26.40
2023-02-14T21:43:34.662Z,26.10
2023-02-14T21:46:05.606Z,25.93
2023-02-14T21:48:53.402Z,26.87
2023-02-14T21:51:21.704Z,27.17
2023-02-14T21:53:49.529Z,26.00
2023-02-14T21:56:19.779Z,26.97
2023-02-14T21:58:48.039Z,26.10
2023-02-14T22:01:18.452Z,26.90
2023-02-14T22:03:46.624Z,26.00
2023-02-14T22:06:14.412Z,25.80
2023-02-14T22:08:42.549Z,24.97
2023-02-14T22:11:12.338Z,22.20
2023-02-14T22:13:39.813Z,24.43
2023-02-14T22:16:09.900Z,24.87
2023-02-14T22:18:39.594Z,24.37
2023-02-14T22:21:12.418Z,23.70
2023-02-14T22:23:40.061Z,24.10
2023-02-14T22:26:12.578Z,22.53
2023-02-14T22:28:40.256Z,21.53
2023-02-14T22:31:08.739Z,26.30
2023-02-14T22:33:37.896Z,30.77
2023-02-14T22:36:08.067Z,21.93
2023-02-14T22:38:36.297Z,21.40
2023-02-14T22:41:07.944Z,23.90
2023-02-14T22:43:36.293Z,22.93
2023-02-14T22:46:05.257Z,24.63
2023-02-14T22:48:33.461Z,21.63
2023-02-14T22:51:10.675Z,23.07
2023-02-14T22:53:38.977Z,21.73
2023-02-14T22:56:14.548Z,21.30
2023-02-14T22:58:42.694Z,21.60
2023-02-14T23:01:14.418Z,21.07
2023-02-14T23:03:41.903Z,22.53
2023-02-14T23:06:11.353Z,23.93
2023-02-14T23:08:40.370Z,24.37
2023-02-14T23:11:12.570Z,24.77
2023-02-14T23:13:57.970Z,25.10
2023-02-14T23:16:44.157Z,24.30
2023-02-14T23:19:31.343Z,24.10
2023-02-14T23:22:03.285Z,25.93
2023-02-14T23:24:30.900Z,27.13
2023-02-14T23:26:58.393Z,23.87
2023-02-14T23:29:26.183Z,25.10
2023-02-14T23:31:53.677Z,24.23
2023-02-14T23:34:21.238Z,24.50
2023-02-14T23:36:48.675Z,23.83
2023-02-14T23:39:17.425Z,26.77
2023-02-14T23:41:50.435Z,25.83
2023-02-14T23:44:20.155Z,26.03
2023-02-14T23:46:48.778Z,23.90
2023-02-14T23:49:16.901Z,25.50
2023-02-14T23:51:45.328Z,24.00
2023-02-14T23:54:13.577Z,26.10
2023-02-14T23:56:43.280Z,24.53
2023-02-14T23:59:11.053Z,23.80
